Time;durP1;ratioP1;P1;durP2;ratioP2;P2;SDS_P1;SDS_P2;PMS_P1;PMS_P2;Temp;Humidity;BMP_temperature;BMP_pressure;BME280_temperature;BME280_humidity;BME280_pressure;Samples;Min_cycle;Max_cycle;Signal;HPM_P1;HPM_P2
2022/03/22 00:01:32;;;;;;;14.77;12.52;;;10.40;99.90;;;;;;5010274;28;20080;-61
2022/03/22 00:04:02;;;;;;;16.10;13.20;;;10.40;99.90;;;;;;5012482;28;20065;-61
2022/03/22 00:06:29;;;;;;;14.35;12.70;;;10.40;99.90;;;;;;5008807;28;20157;-61
2022/03/22 00:08:56;;;;;;;14.27;12.15;;;10.40;99.90;;;;;;4992264;28;20887;-61
2022/03/22 00:11:23;;;;;;;16.50;12.68;;;10.50;99.90;;;;;;5014062;28;20057;-61
2022/03/22 00:13:50;;;;;;;14.93;12.90;;;10.50;99.90;;;;;;5015265;28;20576;-61
2022/03/22 00:16:17;;;;;;;14.60;12.20;;;10.50;99.90;;;;;;5013141;28;20050;-61
2022/03/22 00:19:03;;;;;;;13.63;11.85;;;10.50;99.90;;;;;;5016664;28;20109;-61
2022/03/22 00:21:30;;;;;;;15.10;13.07;;;10.50;99.90;;;;;;5015250;28;20046;-60
2022/03/22 00:23:57;;;;;;;15.30;12.80;;;10.50;99.90;;;;;;5009621;28;20057;-61
2022/03/22 00:26:24;;;;;;;14.43;12.20;;;10.50;99.90;;;;;;5009028;28;20792;-62
2022/03/22 00:28:51;;;;;;;14.90;13.25;;;10.50;99.90;;;;;;5009739;28;20137;-61
2022/03/22 00:31:18;;;;;;;14.98;12.63;;;10.50;99.90;;;;;;5007857;28;20133;-61
2022/03/22 00:33:45;;;;;;;14.30;12.55;;;10.60;99.90;;;;;;5012497;28;20076;-60
2022/03/22 00:36:13;;;;;;;16.83;13.38;;;10.60;99.90;;;;;;5013649;28;20077;-61
2022/03/22 00:38:40;;;;;;;14.13;12.45;;;10.50;99.90;;;;;;5015249;28;20053;-61
2022/03/22 00:41:07;;;;;;;15.77;13.32;;;10.60;99.90;;;;;;5014412;28;20049;-61
2022/03/22 00:43:36;;;;;;;16.30;13.52;;;10.50;99.90;;;;;;5013750;28;20093;-61
2022/03/22 00:46:03;;;;;;;14.75;13.13;;;10.60;99.90;;;;;;5010601;28;20166;-61
2022/03/22 00:48:30;;;;;;;16.00;13.40;;;10.60;99.90;;;;;;5014716;28;20080;-61
2022/03/22 00:50:57;;;;;;;16.80;14.25;;;10.60;99.90;;;;;;5007160;28;20438;-61
2022/03/22 00:53:24;;;;;;;16.33;13.50;;;10.60;99.90;;;;;;5010640;28;20089;-61
2022/03/22 00:55:51;;;;;;;14.35;11.98;;;10.60;99.90;;;;;;5011705;28;20041;-61
2022/03/22 00:58:18;;;;;;;18.15;14.60;;;10.70;99.90;;;;;;5009205;28;20060;-61
2022/03/22 01:00:46;;;;;;;16.33;14.45;;;10.70;99.90;;;;;;5008376;28;20119;-60
2022/03/22 01:03:14;;;;;;;16.30;14.30;;;10.70;99.90;;;;;;5009277;28;20046;-62
2022/03/22 01:05:42;;;;;;;20.17;16.08;;;10.70;99.90;;;;;;5008177;28;20571;-60
2022/03/22 01:08:12;;;;;;;17.05;14.32;;;10.60;99.90;;;;;;5009338;28;20077;-61
2022/03/22 01:10:41;;;;;;;17.48;14.85;;;10.60;99.90;;;;;;5011524;28;20080;-60
2022/03/22 01:13:08;;;;;;;16.70;14.35;;;10.60;99.90;;;;;;5011575;28;20136;-61
2022/03/22 01:15:35;;;;;;;18.40;16.15;;;10.60;99.90;;;;;;5000262;28;20095;-61
2022/03/22 01:18:06;;;;;;;18.85;15.65;;;10.60;99.90;;;;;;5017895;28;20535;-61
2022/03/22 01:20:38;;;;;;;16.73;14.63;;;10.60;99.90;;;;;;5019487;28;20131;-61
2022/03/22 01:23:07;;;;;;;17.10;14.55;;;10.60;99.90;;;;;;5009275;28;20528;-61
2022/03/22 01:25:34;;;;;;;16.42;14.52;;;10.50;99.90;;;;;;5011926;28;20049;-61
2022/03/22 01:28:07;;;;;;;18.75;16.05;;;10.50;99.90;;;;;;5012320;28;20546;-60
2022/03/22 01:30:34;;;;;;;19.80;15.95;;;10.50;99.90;;;;;;5010797;28;20108;-60
2022/03/22 01:33:01;;;;;;;17.38;15.40;;;10.50;99.90;;;;;;5010493;28;20160;-62
2022/03/22 01:35:29;;;;;;;16.90;14.77;;;10.40;99.90;;;;;;4998138;28;20053;-61
2022/03/22 01:37:56;;;;;;;22.55;17.45;;;10.40;99.90;;;;;;5015467;28;20049;-61
2022/03/22 01:40:24;;;;;;;19.13;16.70;;;10.30;99.90;;;;;;5008823;28;21203;-60
2022/03/22 01:42:51;;;;;;;19.88;16.85;;;10.30;99.90;;;;;;5012961;28;20141;-61
2022/03/22 01:45:18;;;;;;;19.70;16.95;;;10.20;99.90;;;;;;5010950;28;20100;-61
2022/03/22 01:47:45;;;;;;;18.42;15.50;;;10.20;99.90;;;;;;5011006;28;20172;-60
2022/03/22 01:50:16;;;;;;;18.77;16.40;;;10.20;99.90;;;;;;5016597;28;20068;-61
2022/03/22 01:52:43;;;;;;;20.00;16.92;;;10.10;99.90;;;;;;5011377;28;20073;-61
2022/03/22 01:55:12;;;;;;;18.52;15.98;;;10.10;99.90;;;;;;5010386;28;20045;-62
2022/03/22 01:57:39;;;;;;;19.10;15.85;;;10.00;99.90;;;;;;5014511;28;20085;-61
2022/03/22 02:00:08;;;;;;;21.35;18.08;;;10.00;99.90;;;;;;5010946;28;20065;-61
2022/03/22 02:08:08;;;;;;;20.25;16.95;;;9.80;99.90;;;;;;5007954;28;20149;-61
2022/03/22 02:10:35;;;;;;;21.58;17.60;;;9.70;99.90;;;;;;5013944;28;20080;-60
2022/03/22 02:13:02;;;;;;;23.63;18.08;;;9.70;99.90;;;;;;5013444;28;20076;-61
2022/03/22 02:15:29;;;;;;;22.35;18.13;;;9.60;99.90;;;;;;5013773;28;20508;-61
2022/03/22 02:17:56;;;;;;;20.77;17.40;;;9.50;99.90;;;;;;5007138;28;20540;-60
2022/03/22 02:20:22;;;;;;;21.65;18.55;;;9.50;99.90;;;;;;5008256;28;20120;-60
2022/03/22 02:22:55;;;;;;;22.52;19.15;;;9.40;99.90;;;;;;5016915;28;20133;-60
2022/03/22 02:25:22;;;;;;;22.02;18.50;;;9.40;99.90;;;;;;5017354;28;20046;-61
2022/03/22 02:27:52;;;;;;;24.75;19.67;;;9.30;99.90;;;;;;5011192;28;20120;-61
2022/03/22 02:30:18;;;;;;;21.73;17.13;;;9.30;99.90;;;;;;5011219;28;20060;-61
2022/03/22 02:32:50;;;;;;;23.33;17.65;;;9.20;99.90;;;;;;5015017;28;20088;-60
2022/03/22 02:35:18;;;;;;;22.48;18.63;;;9.20;99.90;;;;;;5009547;28;20133;-59
2022/03/22 02:37:45;;;;;;;24.25;19.15;;;9.10;99.90;;;;;;5009067;28;20069;-60
2022/03/22 02:40:13;;;;;;;24.17;19.23;;;9.10;99.90;;;;;;5011973;28;20414;-61
2022/03/22 02:42:47;;;;;;;24.55;18.48;;;9.00;99.90;;;;;;5010627;28;20051;-60
2022/03/22 02:45:14;;;;;;;26.50;19.05;;;9.00;99.90;;;;;;5010829;28;20417;-60
2022/03/22 02:47:41;;;;;;;24.02;18.80;;;8.90;99.90;;;;;;5015630;28;20150;-60
2022/03/22 02:50:08;;;;;;;22.60;18.63;;;8.90;99.90;;;;;;5016032;28;20077;-61
2022/03/22 02:52:35;;;;;;;23.55;19.27;;;8.90;99.90;;;;;;5011238;28;20121;-60
2022/03/22 02:55:06;;;;;;;22.13;17.60;;;8.90;99.90;;;;;;5011764;28;20046;-60
2022/03/22 02:57:34;;;;;;;24.52;19.20;;;9.00;99.90;;;;;;5015545;28;20081;-61
2022/03/22 03:00:03;;;;;;;21.63;18.77;;;9.00;99.90;;;;;;5010792;28;20099;-62
2022/03/22 03:02:29;;;;;;;24.45;19.60;;;9.00;99.90;;;;;;5011765;28;20107;-61
2022/03/22 03:04:57;;;;;;;26.85;20.45;;;9.10;99.90;;;;;;5016070;28;20132;-61
2022/03/22 03:07:25;;;;;;;26.85;20.85;;;9.20;99.90;;;;;;5016405;28;20084;-60
2022/03/22 03:09:52;;;;;;;29.70;22.40;;;9.20;99.90;;;;;;5010675;28;20076;-61
2022/03/22 03:12:19;;;;;;;29.00;21.30;;;9.30;99.90;;;;;;5010403;28;20088;-61
2022/03/22 03:14:47;;;;;;;27.52;22.75;;;9.30;99.90;;;;;;5010683;28;20475;-60
2022/03/22 03:17:14;;;;;;;28.88;22.65;;;9.30;99.90;;;;;;5010330;28;20080;-60
2022/03/22 03:19:41;;;;;;;29.10;23.75;;;9.30;99.90;;;;;;5012141;28;20068;-61
2022/03/22 03:22:08;;;;;;;31.70;25.73;;;9.30;99.90;;;;;;5016236;28;20069;-60
2022/03/22 03:24:38;;;;;;;29.83;23.50;;;9.30;99.90;;;;;;5002475;28;20069;-61
2022/03/22 03:27:04;;;;;;;28.90;23.40;;;9.40;99.90;;;;;;5021247;28;20149;-60
2022/03/22 03:29:31;;;;;;;24.95;20.45;;;9.40;99.90;;;;;;5014236;28;20083;-61
2022/03/22 03:31:58;;;;;;;27.83;24.33;;;9.40;99.90;;;;;;5015033;28;20176;-61
2022/03/22 03:34:25;;;;;;;28.67;23.42;;;9.40;99.90;;;;;;5018595;28;20102;-60
2022/03/22 03:36:52;;;;;;;27.25;22.08;;;9.50;99.90;;;;;;5020910;28;20429;-61
2022/03/22 03:39:19;;;;;;;29.20;23.00;;;9.50;99.90;;;;;;5021236;28;20076;-61
2022/03/22 03:41:54;;;;;;;27.20;22.67;;;9.50;99.90;;;;;;5020584;28;20493;-60
2022/03/22 03:47:07;;;;;;;25.65;20.23;;;9.50;99.90;;;;;;5019554;28;20136;-61
2022/03/22 03:49:41;;;;;;;26.10;20.88;;;9.60;99.90;;;;;;5014297;28;20620;-60
2022/03/22 03:52:09;;;;;;;25.65;21.23;;;9.60;99.90;;;;;;5017793;28;20072;-61
2022/03/22 03:54:36;;;;;;;25.20;21.80;;;9.60;99.90;;;;;;5011949;28;20085;-61
2022/03/22 03:57:04;;;;;;;25.75;20.83;;;9.50;99.90;;;;;;5013108;28;20132;-61
2022/03/22 03:59:31;;;;;;;24.88;21.20;;;9.50;99.90;;;;;;5013309;28;20075;-61
2022/03/22 04:01:58;;;;;;;26.75;21.77;;;9.50;99.90;;;;;;5013088;28;20069;-60
2022/03/22 04:04:25;;;;;;;24.90;20.83;;;9.60;99.90;;;;;;5013308;28;20235;-61
2022/03/22 04:06:52;;;;;;;25.42;21.17;;;9.60;99.90;;;;;;5012516;28;20125;-61
2022/03/22 04:09:19;;;;;;;27.95;22.52;;;9.60;99.90;;;;;;5013181;28;20132;-60
2022/03/22 04:11:46;;;;;;;26.50;21.27;;;9.60;99.90;;;;;;5014095;28;20076;-60
2022/03/22 04:14:12;;;;;;;24.25;19.85;;;9.50;99.90;;;;;;5013384;28;20081;-60
2022/03/22 04:16:40;;;;;;;27.10;20.95;;;9.50;99.90;;;;;;5012866;28;20172;-61
2022/03/22 04:19:07;;;;;;;28.40;23.50;;;9.50;99.90;;;;;;5017788;28;20435;-62
2022/03/22 04:21:35;;;;;;;26.08;21.17;;;9.50;99.90;;;;;;5020908;28;20077;-61
2022/03/22 04:24:08;;;;;;;25.65;21.17;;;9.50;99.90;;;;;;5018970;28;20081;-61
2022/03/22 04:26:36;;;;;;;25.50;21.77;;;9.50;99.90;;;;;;5018670;28;20077;-60
2022/03/22 04:34:34;;;;;;;27.60;21.80;;;9.50;99.90;;;;;;5010918;28;20046;-61
2022/03/22 04:37:01;;;;;;;26.05;21.65;;;9.60;99.90;;;;;;5011532;28;20077;-61
2022/03/22 04:39:29;;;;;;;28.38;21.90;;;9.60;99.90;;;;;;5011794;28;20146;-61
2022/03/22 04:41:56;;;;;;;26.13;21.55;;;9.60;99.90;;;;;;5019498;28;20439;-61
2022/03/22 04:44:24;;;;;;;28.58;22.83;;;9.60;99.90;;;;;;5018990;28;20817;-61
2022/03/22 04:46:51;;;;;;;27.02;21.77;;;9.60;99.90;;;;;;5017014;28;20132;-60
2022/03/22 04:49:18;;;;;;;25.33;21.63;;;9.60;99.90;;;;;;5018440;28;20069;-61
2022/03/22 04:57:16;;;;;;;25.60;21.48;;;9.60;99.90;;;;;;5019367;28;20081;-61
2022/03/22 04:59:43;;;;;;;26.77;21.25;;;9.60;99.90;;;;;;5011284;28;20417;-61
2022/03/22 05:02:10;;;;;;;27.27;22.67;;;9.60;99.90;;;;;;5012928;28;20376;-61
2022/03/22 05:04:37;;;;;;;27.73;22.65;;;9.60;99.90;;;;;;5010162;28;20052;-61
2022/03/22 05:07:05;;;;;;;27.58;21.70;;;9.60;99.90;;;;;;5013279;28;20073;-60
2022/03/22 05:09:31;;;;;;;29.45;23.25;;;9.60;99.90;;;;;;5012070;28;20068;-61
2022/03/22 05:11:59;;;;;;;27.60;23.00;;;9.60;99.90;;;;;;5019198;28;20321;-61
2022/03/22 05:14:26;;;;;;;27.23;22.67;;;9.60;99.90;;;;;;5015977;28;20124;-62
2022/03/22 05:16:56;;;;;;;28.48;22.60;;;9.60;99.90;;;;;;5015405;28;20042;-61
2022/03/22 05:19:25;;;;;;;;;;;9.60;99.90;;;;;;5016579;28;20064;-61
2022/03/22 05:21:52;;;;;;;26.65;20.45;;;9.60;99.90;;;;;;5015969;28;20044;-61
2022/03/22 05:24:19;;;;;;;26.83;21.42;;;9.60;99.90;;;;;;5014627;28;20065;-62
2022/03/22 05:26:46;;;;;;;25.98;21.65;;;9.60;99.90;;;;;;5015831;28;20086;-61
2022/03/22 05:29:13;;;;;;;26.33;22.65;;;9.70;99.90;;;;;;5013771;28;20153;-61
2022/03/22 05:31:40;;;;;;;26.05;21.05;;;9.70;99.90;;;;;;5015023;28;20077;-61
2022/03/22 05:34:07;;;;;;;26.33;21.75;;;9.70;99.90;;;;;;5013494;28;20101;-61
2022/03/22 05:36:34;;;;;;;28.30;21.92;;;9.60;99.90;;;;;;5015937;28;20136;-61
2022/03/22 05:39:00;;;;;;;26.98;21.80;;;9.60;99.90;;;;;;5018054;28;20330;-61
2022/03/22 05:41:27;;;;;;;25.90;21.20;;;9.60;99.90;;;;;;5017201;28;20104;-61
2022/03/22 05:43:54;;;;;;;27.58;22.50;;;9.70;99.90;;;;;;5014620;28;20099;-62
2022/03/22 05:46:22;;;;;;;27.98;21.83;;;9.70;99.90;;;;;;5016852;28;20120;-61
2022/03/22 05:48:49;;;;;;;26.10;22.10;;;9.70;99.90;;;;;;5014328;28;20050;-61
2022/03/22 05:51:19;;;;;;;27.63;22.25;;;9.70;99.90;;;;;;5015624;28;20073;-60
2022/03/22 05:53:46;;;;;;;24.65;21.08;;;9.70;99.90;;;;;;5017066;28;20050;-61
2022/03/22 05:56:13;;;;;;;26.98;21.80;;;9.70;99.90;;;;;;5012883;28;20152;-61
2022/03/22 05:58:40;;;;;;;25.48;20.85;;;9.70;99.90;;;;;;5013754;28;20073;-61
2022/03/22 06:01:06;;;;;;;26.48;21.77;;;9.70;99.90;;;;;;5015230;28;20162;-61
2022/03/22 06:03:34;;;;;;;27.40;21.50;;;9.70;99.90;;;;;;5009151;28;20045;-61
2022/03/22 06:06:00;;;;;;;27.35;22.23;;;9.70;99.90;;;;;;5005865;28;20136;-61
2022/03/22 06:08:29;;;;;;;29.88;23.60;;;9.60;99.90;;;;;;5010729;28;20080;-61
2022/03/22 06:10:56;;;;;;;26.35;21.73;;;9.60;99.90;;;;;;5018311;28;20053;-62
2022/03/22 06:13:23;;;;;;;26.92;21.75;;;9.60;99.90;;;;;;5018300;28;20124;-61
2022/03/22 06:15:50;;;;;;;26.77;21.90;;;9.60;99.90;;;;;;5016509;28;20045;-61
2022/03/22 06:18:17;;;;;;;25.33;20.85;;;9.60;99.90;;;;;;5016111;28;20996;-61
2022/03/22 06:20:44;;;;;;;24.95;20.40;;;9.70;99.90;;;;;;5011819;28;20160;-61
2022/03/22 06:23:12;;;;;;;26.23;20.95;;;9.70;99.90;;;;;;5017808;28;20064;-61
2022/03/22 06:25:39;;;;;;;27.45;21.92;;;9.70;99.90;;;;;;5016519;28;20572;-61
2022/03/22 06:28:07;;;;;;;26.90;22.50;;;9.70;99.90;;;;;;5033158;28;20057;-61
2022/03/22 06:30:34;;;;;;;27.70;22.77;;;9.70;99.90;;;;;;5014484;28;20124;-60
2022/03/22 06:33:12;;;;;;;28.95;24.52;;;9.70;99.90;;;;;;5011481;28;20057;-61
2022/03/22 06:35:40;;;;;;;30.70;24.98;;;9.70;99.90;;;;;;5005783;28;20132;-61
2022/03/22 06:38:07;;;;;;;28.90;24.35;;;9.70;99.90;;;;;;5003475;28;20169;-61
2022/03/22 06:40:34;;;;;;;29.80;23.70;;;9.70;99.90;;;;;;5002096;28;20528;-61
2022/03/22 06:43:02;;;;;;;28.52;23.05;;;9.70;99.90;;;;;;5017347;28;20057;-61
2022/03/22 06:45:34;;;;;;;28.95;23.17;;;9.80;99.90;;;;;;5013221;28;20051;-61
2022/03/22 06:48:01;;;;;;;28.00;22.80;;;9.80;99.90;;;;;;5017079;28;20548;-62
2022/03/22 06:50:28;;;;;;;27.23;22.27;;;9.90;99.90;;;;;;5014882;28;20132;-61
2022/03/22 06:52:55;;;;;;;25.02;21.98;;;9.90;99.90;;;;;;5012605;28;20144;-61
2022/03/22 06:55:22;;;;;;;26.98;21.92;;;10.00;99.90;;;;;;5016640;28;20144;-61
2022/03/22 06:57:56;;;;;;;26.83;22.30;;;10.00;99.90;;;;;;4999507;28;20050;-61
2022/03/22 07:00:23;;;;;;;27.05;21.45;;;10.10;99.90;;;;;;5009018;28;20516;-61
2022/03/22 07:02:50;;;;;;;25.60;21.08;;;10.20;99.90;;;;;;5012105;28;20073;-62
2022/03/22 07:05:17;;;;;;;25.85;20.70;;;10.30;99.90;;;;;;5016976;28;20045;-63
2022/03/22 07:07:43;;;;;;;26.48;22.02;;;10.40;99.90;;;;;;5015878;28;20194;-61
2022/03/22 07:10:12;;;;;;;25.33;21.85;;;10.40;99.90;;;;;;5016082;28;20089;-62
2022/03/22 07:12:58;;;;;;;25.70;20.90;;;10.50;99.90;;;;;;5021449;28;20057;-61
2022/03/22 07:15:33;;;;;;;23.60;20.45;;;10.60;99.90;;;;;;5010465;28;20460;-60
2022/03/22 07:18:00;;;;;;;23.42;19.40;;;10.70;99.90;;;;;;5007736;28;20461;-60
2022/03/22 07:20:27;;;;;;;27.73;21.27;;;10.80;99.90;;;;;;5014376;28;20077;-60
2022/03/22 07:22:58;;;;;;;24.90;20.80;;;11.00;99.90;;;;;;5012965;28;20053;-60
2022/03/22 07:25:25;;;;;;;26.45;22.63;;;11.10;99.90;;;;;;5002064;28;20149;-60
2022/03/22 07:27:52;;;;;;;22.42;20.00;;;11.20;99.90;;;;;;5000854;28;20128;-60
2022/03/22 07:30:18;;;;;;;25.42;20.17;;;11.30;99.90;;;;;;5001991;28;20156;-60
2022/03/22 07:32:45;;;;;;;23.73;20.00;;;11.40;99.90;;;;;;5000933;28;20102;-60
2022/03/22 07:35:13;;;;;;;24.38;19.70;;;11.50;99.90;;;;;;4999433;28;20081;-60
2022/03/22 07:37:41;;;;;;;24.25;19.80;;;11.50;99.90;;;;;;5001958;28;20971;-60
2022/03/22 07:40:09;;;;;;;23.35;20.55;;;11.50;99.90;;;;;;5000826;28;20479;-60
2022/03/22 07:42:37;;;;;;;24.58;20.98;;;11.50;99.90;;;;;;5002852;28;20050;-60
2022/03/22 07:45:08;;;;;;;24.05;20.20;;;11.50;99.90;;;;;;5019502;28;20054;-60
2022/03/22 07:47:35;;;;;;;24.33;19.92;;;11.50;99.90;;;;;;5021515;28;20111;-60
2022/03/22 07:53:01;;;;;;;24.33;19.63;;;11.30;99.90;;;;;;4998072;28;20357;-60
2022/03/22 07:55:29;;;;;;;25.90;19.92;;;11.30;99.90;;;;;;5021367;28;20053;-59
2022/03/22 07:57:57;;;;;;;25.02;19.40;;;11.30;99.90;;;;;;5021244;28;20119;-60
2022/03/22 08:00:25;;;;;;;23.55;19.10;;;11.30;99.90;;;;;;5021043;28;20452;-60
2022/03/22 08:02:54;;;;;;;23.48;19.40;;;11.40;99.90;;;;;;5021124;28;20049;-59
2022/03/22 08:05:22;;;;;;;23.23;18.90;;;11.40;99.90;;;;;;5018742;28;20755;-60
2022/03/22 08:07:49;;;;;;;23.05;19.77;;;11.40;99.90;;;;;;5020791;28;20059;-59
2022/03/22 08:10:16;;;;;;;23.67;18.90;;;11.40;99.90;;;;;;5018907;28;20307;-59
2022/03/22 08:12:43;;;;;;;22.05;17.67;;;11.50;99.90;;;;;;5019230;28;20372;-60
2022/03/22 08:15:10;;;;;;;22.40;18.45;;;11.50;99.90;;;;;;5000968;28;20054;-61
2022/03/22 08:17:37;;;;;;;22.05;18.70;;;11.60;99.90;;;;;;5001016;28;20112;-60
2022/03/22 08:20:07;;;;;;;19.83;17.60;;;11.70;99.90;;;;;;5003251;28;20058;-59
2022/03/22 08:22:59;;;;;;;22.83;18.60;;;11.80;99.90;;;;;;5006330;28;20087;-59
2022/03/22 08:25:35;;;;;;;22.77;18.40;;;11.80;99.90;;;;;;5009317;28;20406;-60
2022/03/22 08:28:06;;;;;;;20.50;17.08;;;11.90;99.90;;;;;;5013167;28;20140;-60
2022/03/22 08:30:33;;;;;;;20.15;17.00;;;12.00;99.90;;;;;;5015572;28;20473;-60
2022/03/22 08:33:03;;;;;;;21.00;18.08;;;12.10;99.90;;;;;;5016498;28;20083;-60
2022/03/22 08:35:30;;;;;;;21.55;16.70;;;12.20;99.90;;;;;;5004540;28;20112;-60
2022/03/22 08:37:57;;;;;;;20.65;16.35;;;12.30;99.90;;;;;;5000807;28;20221;-60
2022/03/22 08:40:24;;;;;;;22.00;16.83;;;12.30;99.90;;;;;;5019053;28;20045;-60
2022/03/22 08:42:52;;;;;;;19.77;16.13;;;12.40;99.90;;;;;;5013261;28;20366;-60
2022/03/22 08:45:20;;;;;;;20.15;15.82;;;12.40;99.90;;;;;;5000120;28;20169;-60
2022/03/22 08:47:47;;;;;;;19.38;15.27;;;12.50;99.90;;;;;;5007262;28;20465;-60
2022/03/22 08:50:15;;;;;;;17.08;14.00;;;12.60;99.90;;;;;;5000666;28;20482;-60
2022/03/22 08:52:42;;;;;;;18.08;13.70;;;12.70;99.90;;;;;;5019885;28;20118;-60
2022/03/22 08:55:11;;;;;;;15.25;12.88;;;12.90;99.90;;;;;;5009569;28;20244;-60
2022/03/22 08:57:39;;;;;;;15.18;12.18;;;13.00;99.90;;;;;;5018143;28;20180;-60
2022/03/22 09:00:08;;;;;;;16.15;12.98;;;13.10;99.90;;;;;;5010086;28;20171;-60
2022/03/22 09:02:39;;;;;;;16.52;11.82;;;13.20;99.90;;;;;;5018337;28;20114;-61
2022/03/22 09:07:52;;;;;;;14.50;10.32;;;13.40;99.90;;;;;;5012642;28;20142;-61
2022/03/22 09:10:22;;;;;;;13.65;10.13;;;13.60;99.90;;;;;;5009421;28;20440;-64
2022/03/22 09:12:49;;;;;;;14.88;10.85;;;13.70;99.90;;;;;;4999815;28;20156;-60
2022/03/22 09:15:17;;;;;;;12.05;9.82;;;13.80;99.90;;;;;;5009787;28;20080;-61
2022/03/22 09:17:45;;;;;;;12.05;10.20;;;14.00;99.90;;;;;;5019340;28;20478;-60
2022/03/22 09:20:13;;;;;;;11.63;9.57;;;14.10;99.90;;;;;;5017608;28;20057;-60
2022/03/22 09:22:43;;;;;;;11.75;9.52;;;14.30;99.90;;;;;;5004240;28;20090;-60
2022/03/22 09:25:10;;;;;;;11.98;10.20;;;14.40;99.90;;;;;;5002199;28;20463;-61
2022/03/22 09:27:38;;;;;;;12.68;10.18;;;14.50;99.90;;;;;;5018954;28;20512;-60
2022/03/22 09:30:05;;;;;;;13.63;10.63;;;14.60;99.90;;;;;;5019162;28;20057;-61
2022/03/22 09:32:32;;;;;;;11.43;9.80;;;14.70;99.90;;;;;;5018685;28;20093;-61
2022/03/22 09:34:59;;;;;;;12.27;9.52;;;14.80;99.90;;;;;;5018253;28;20127;-61
2022/03/22 09:37:27;;;;;;;11.15;9.15;;;14.90;99.90;;;;;;5016591;28;20264;-61
2022/03/22 09:39:54;;;;;;;13.07;10.05;;;15.00;99.90;;;;;;4999071;28;20069;-60
2022/03/22 09:42:21;;;;;;;12.85;9.68;;;15.00;99.90;;;;;;4999907;28;20455;-60
2022/03/22 09:44:50;;;;;;;11.00;9.18;;;15.10;99.90;;;;;;4999129;28;20154;-60
2022/03/22 09:47:17;;;;;;;9.57;8.45;;;15.10;99.90;;;;;;4999301;28;20331;-60
2022/03/22 09:49:44;;;;;;;10.90;8.95;;;15.20;99.90;;;;;;4998619;28;20450;-60
2022/03/22 09:52:11;;;;;;;10.35;8.70;;;15.30;99.90;;;;;;4998752;28;20493;-61
2022/03/22 09:54:41;;;;;;;10.05;8.25;;;15.40;99.90;;;;;;4997254;28;20100;-60
2022/03/22 09:57:07;;;;;;;9.98;8.13;;;15.40;99.90;;;;;;4999244;28;20277;-60
2022/03/22 09:59:36;;;;;;;9.95;8.75;;;15.40;99.90;;;;;;4998687;28;20569;-61
2022/03/22 10:02:04;;;;;;;11.25;8.98;;;15.50;99.90;;;;;;5013015;28;20085;-61
2022/03/22 10:04:39;;;;;;;10.15;8.40;;;15.60;99.90;;;;;;5009834;28;20537;-61
2022/03/22 10:07:07;;;;;;;9.82;7.95;;;15.70;99.90;;;;;;4999900;28;20575;-61
2022/03/22 10:09:39;;;;;;;10.45;8.38;;;15.90;99.90;;;;;;5004453;28;20437;-61
2022/03/22 10:12:13;;;;;;;11.60;8.68;;;15.90;99.90;;;;;;5017353;28;20060;-61
2022/03/22 10:14:40;;;;;;;11.23;8.93;;;15.90;99.90;;;;;;5014782;28;20320;-61
2022/03/22 10:17:11;;;;;;;9.45;7.78;;;16.00;99.90;;;;;;5007312;28;20530;-60
2022/03/22 10:19:49;;;;;;;8.88;7.40;;;16.20;99.90;;;;;;5014615;28;20511;-60
2022/03/22 10:22:23;;;;;;;8.65;7.32;;;16.30;99.90;;;;;;5012818;28;20049;-60
2022/03/22 10:24:55;;;;;;;7.85;7.03;;;16.40;99.90;;;;;;5003084;28;20157;-60
2022/03/22 10:27:30;;;;;;;8.00;6.90;;;16.50;99.90;;;;;;5012303;28;20402;-60
2022/03/22 10:30:17;;;;;;;7.55;6.30;;;16.70;99.90;;;;;;4998559;28;20140;-60
2022/03/22 10:32:50;;;;;;;7.88;6.30;;;16.80;99.90;;;;;;4997777;28;20058;-60
2022/03/22 10:35:22;;;;;;;7.43;6.13;;;16.80;99.90;;;;;;5001937;28;20568;-60
2022/03/22 10:38:00;;;;;;;7.05;6.00;;;16.90;99.90;;;;;;5006903;28;20656;-60
2022/03/22 10:40:34;;;;;;;8.85;6.88;;;17.00;99.90;;;;;;5005399;28;20453;-60
2022/03/22 10:43:18;;;;;;;6.90;5.95;;;17.00;99.90;;;;;;5014301;28;20149;-60
2022/03/22 10:45:52;;;;;;;5.97;5.30;;;16.90;99.90;;;;;;5008159;28;20080;-60
2022/03/22 10:48:22;;;;;;;5.93;5.25;;;17.00;99.90;;;;;;5006042;28;20124;-60
2022/03/22 10:50:49;;;;;;;6.70;5.53;;;17.20;99.90;;;;;;5014435;28;20393;-60
2022/03/22 10:53:17;;;;;;;6.07;5.38;;;17.20;99.90;;;;;;5012876;28;20128;-60
2022/03/22 10:55:44;;;;;;;6.55;5.60;;;17.20;99.90;;;;;;5010676;28;20084;-60
2022/03/22 10:58:17;;;;;;;6.95;5.60;;;17.30;99.90;;;;;;5012570;28;20148;-60
2022/03/22 11:00:45;;;;;;;6.57;5.65;;;17.40;99.90;;;;;;4997796;28;20168;-61
2022/03/22 11:03:13;;;;;;;6.97;5.80;;;17.50;99.90;;;;;;4997415;28;20086;-60
2022/03/22 11:05:40;;;;;;;8.30;6.10;;;17.50;99.90;;;;;;4996565;28;20060;-60
2022/03/22 11:08:07;;;;;;;7.15;5.65;;;17.40;99.90;;;;;;4998664;28;20236;-60
2022/03/22 11:10:36;;;;;;;6.00;5.40;;;17.50;99.90;;;;;;4997988;28;20064;-60
2022/03/22 11:13:02;;;;;;;8.40;7.00;;;17.70;99.90;;;;;;4996768;28;20088;-60
2022/03/22 11:15:31;;;;;;;8.30;6.97;;;17.80;99.90;;;;;;4998056;28;20563;-60
2022/03/22 11:17:58;;;;;;;8.10;7.20;;;18.00;99.90;;;;;;4980539;28;20081;-60
2022/03/22 11:20:25;;;;;;;7.30;6.50;;;18.10;99.90;;;;;;4964042;28;20081;-60
2022/03/22 11:22:56;;;;;;;8.45;7.20;;;18.10;99.90;;;;;;4997867;28;20077;-60
2022/03/22 11:25:34;;;;;;;6.70;5.88;;;18.30;99.90;;;;;;4997794;28;20324;-60
2022/03/22 11:28:08;;;;;;;6.13;5.50;;;18.40;99.90;;;;;;4997859;28;20153;-60
2022/03/22 11:30:39;;;;;;;6.78;5.70;;;18.50;99.90;;;;;;4996457;28;20501;-60
2022/03/22 11:35:56;;;;;;;5.82;4.65;;;18.80;99.70;;;;;;4997288;28;20141;-60
2022/03/22 11:38:56;;;;;;;5.80;5.20;;;19.00;99.40;;;;;;4997293;28;20076;-60
2022/03/22 11:44:19;;;;;;;5.57;4.90;;;19.50;97.70;;;;;;4998700;28;20462;-60
2022/03/22 11:46:47;;;;;;;6.68;5.63;;;19.70;96.80;;;;;;5001539;28;20065;-61
2022/03/22 11:49:21;;;;;;;6.65;5.78;;;19.70;97.20;;;;;;4999690;28;20226;-60
2022/03/22 11:51:52;;;;;;;6.47;5.55;;;19.90;97.40;;;;;;5000839;28;20470;-61
2022/03/22 11:54:19;;;;;;;6.28;5.65;;;20.20;97.20;;;;;;5001850;28;20129;-60
2022/03/22 11:56:57;;;;;;;6.97;6.07;;;20.40;96.80;;;;;;4999460;28;20092;-60
2022/03/22 11:59:28;;;;;;;7.57;6.55;;;20.40;95.90;;;;;;5001843;28;20081;-61
2022/03/22 12:02:03;;;;;;;6.03;5.40;;;20.60;95.40;;;;;;5001151;28;20480;-60
2022/03/22 12:04:40;;;;;;;7.45;5.82;;;20.80;94.10;;;;;;5001124;28;20177;-61
2022/03/22 12:07:08;;;;;;;6.07;5.20;;;21.00;94.00;;;;;;5000803;28;20531;-60
2022/03/22 12:09:39;;;;;;;7.28;6.28;;;21.20;94.10;;;;;;5001212;28;20317;-60
2022/03/22 12:12:10;;;;;;;6.63;5.20;;;21.40;93.30;;;;;;5001380;28;20200;-61
2022/03/22 12:14:37;;;;;;;5.88;5.28;;;21.50;92.50;;;;;;5008668;28;20136;-61
2022/03/22 12:17:04;;;;;;;5.43;4.93;;;21.60;91.90;;;;;;5009446;28;20578;-61
2022/03/22 12:19:32;;;;;;;5.45;4.80;;;21.90;91.40;;;;;;5020432;28;20049;-61
2022/03/22 12:22:00;;;;;;;6.47;5.15;;;22.10;91.70;;;;;;5008249;28;20144;-61
2022/03/22 12:24:32;;;;;;;6.50;5.65;;;22.20;90.50;;;;;;5020095;28;20057;-61
2022/03/22 12:27:05;;;;;;;7.07;5.15;;;22.30;90.80;;;;;;5014192;28;20069;-61
2022/03/22 12:29:37;;;;;;;4.93;4.45;;;22.40;90.30;;;;;;5011277;28;20137;-60
2022/03/22 12:32:07;;;;;;;9.48;5.22;;;22.50;90.00;;;;;;5001123;28;20129;-60
2022/03/22 12:34:36;;;;;;;6.10;5.50;;;22.60;90.10;;;;;;5007320;28;20053;-60
2022/03/22 12:37:04;;;;;;;5.38;4.85;;;22.80;89.00;;;;;;5011787;28;20067;-61
2022/03/22 12:39:37;;;;;;;5.47;4.95;;;23.10;86.00;;;;;;5007960;28;20064;-60
2022/03/22 12:42:04;;;;;;;6.25;5.65;;;23.50;86.60;;;;;;5016311;28;20067;-60
2022/03/22 12:44:31;;;;;;;5.35;4.70;;;23.40;84.50;;;;;;5019861;28;20541;-59
2022/03/22 12:46:58;;;;;;;5.65;4.57;;;23.80;82.30;;;;;;5010281;28;20589;-60
2022/03/22 12:49:25;;;;;;;5.97;5.38;;;24.00;82.30;;;;;;5015312;28;20053;-60
2022/03/22 12:51:51;;;;;;;5.65;5.15;;;24.10;83.20;;;;;;5014601;28;20486;-60
2022/03/22 12:54:18;;;;;;;5.57;5.07;;;24.10;80.50;;;;;;4999963;28;20550;-60
2022/03/22 12:56:48;;;;;;;5.43;4.93;;;24.20;78.90;;;;;;4999587;28;20060;-60
2022/03/22 12:59:23;;;;;;;4.70;4.30;;;24.40;76.50;;;;;;4998718;28;20061;-60
2022/03/22 13:01:58;;;;;;;4.88;4.38;;;24.50;76.80;;;;;;4999475;28;20050;-60
2022/03/22 13:04:28;;;;;;;4.65;4.25;;;24.70;75.50;;;;;;5006699;28;20111;-60
2022/03/22 13:07:01;;;;;;;4.85;4.35;;;24.80;73.60;;;;;;5018624;28;20115;-61
2022/03/22 13:12:14;;;;;;;4.72;4.20;;;24.80;71.80;;;;;;5017986;28;20458;-61
2022/03/22 13:17:28;;;;;;;3.35;3.05;;;25.00;71.90;;;;;;5019381;28;20089;-60
2022/03/22 13:19:56;;;;;;;4.20;3.78;;;25.40;69.80;;;;;;5018733;28;20148;-61